createdAt,value
2023-01-13T00:03:38.293Z,28.25
2023-01-13T00:08:52.219Z,29.02
2023-01-13T00:13:45.715Z,38.70
2023-01-13T00:18:39.525Z,29.55
2023-01-13T00:23:35.137Z,27.27
2023-01-13T00:28:28.339Z,25.20
2023-01-13T00:33:22.496Z,25.83
2023-01-13T00:38:15.574Z,20.63
2023-01-13T00:43:24.679Z,21.08
2023-01-13T00:48:19.931Z,19.60
2023-01-13T00:53:14.402Z,17.50
2023-01-13T00:58:08.015Z,23.92
2023-01-13T01:03:01.890Z,22.48
2023-01-13T01:07:55.547Z,28.13
2023-01-13T01:12:51.405Z,29.60
2023-01-13T01:17:45.079Z,26.50
2023-01-13T01:22:38.544Z,27.40
2023-01-13T01:27:32.056Z,27.10
2023-01-13T01:32:26.187Z,22.92
2023-01-13T01:37:20.281Z,22.27
2023-01-13T01:42:36.370Z,23.08
2023-01-13T01:47:31.086Z,21.75
2023-01-13T01:52:40.979Z,17.38
2023-01-13T01:57:43.956Z,24.25
2023-01-13T02:02:37.205Z,20.90
2023-01-13T02:07:32.860Z,23.80
2023-01-13T02:12:35.474Z,24.17
2023-01-13T02:17:37.987Z,27.70
2023-01-13T02:22:35.560Z,27.13
2023-01-13T02:28:19.739Z,25.65
2023-01-13T02:33:19.249Z,21.58
2023-01-13T02:38:14.839Z,17.70
2023-01-13T02:43:38.552Z,20.58
2023-01-13T02:48:33.938Z,18.60
2023-01-13T02:53:36.724Z,16.13
2023-01-13T02:58:30.743Z,15.15
2023-01-13T03:03:24.799Z,21.33
2023-01-13T03:08:46.723Z,21.85
2023-01-13T03:13:53.819Z,12.13
2023-01-13T03:19:09.670Z,13.45
2023-01-13T03:24:51.800Z,13.63
2023-01-13T03:29:55.053Z,17.85
2023-01-13T03:35:02.966Z,15.77
2023-01-13T03:40:01.161Z,13.20
2023-01-13T03:45:03.944Z,19.02
2023-01-13T03:50:01.298Z,13.50
2023-01-13T03:55:01.065Z,16.02
2023-01-13T03:59:58.378Z,16.15
2023-01-13T04:04:58.302Z,15.20
2023-01-13T04:10:00.359Z,18.23
2023-01-13T04:14:56.205Z,17.58
2023-01-13T04:19:50.517Z,24.55
2023-01-13T04:24:44.391Z,18.88
2023-01-13T04:29:38.328Z,21.95
2023-01-13T04:34:31.930Z,20.52
2023-01-13T04:39:25.416Z,20.85
2023-01-13T04:44:19.325Z,19.90
2023-01-13T04:49:13.170Z,20.63
2023-01-13T04:54:07.408Z,20.98
2023-01-13T04:59:04.395Z,21.42
2023-01-13T05:03:59.867Z,24.77
2023-01-13T05:08:55.483Z,22.27
2023-01-13T05:14:08.629Z,25.92
2023-01-13T05:19:02.305Z,22.75
2023-01-13T05:24:13.919Z,27.50
2023-01-13T05:29:06.979Z,27.50
2023-01-13T05:34:00.265Z,27.25
2023-01-13T05:38:53.696Z,25.55
2023-01-13T05:43:46.827Z,22.98
2023-01-13T05:48:42.553Z,27.73
2023-01-13T05:53:36.426Z,24.08
2023-01-13T05:58:30.532Z,18.40
2023-01-13T06:03:24.122Z,19.00
2023-01-13T06:08:19.456Z,19.33
2023-01-13T06:13:13.193Z,19.05
2023-01-13T06:18:07.239Z,20.67
2023-01-13T06:23:01.137Z,22.25
2023-01-13T06:27:55.636Z,18.35
2023-01-13T06:33:09.843Z,20.40
2023-01-13T06:38:04.552Z,19.98
2023-01-13T06:43:17.777Z,19.67
2023-01-13T06:48:11.950Z,20.08
2023-01-13T06:53:05.589Z,26.77
2023-01-13T06:57:59.524Z,22.13
2023-01-13T07:02:52.922Z,25.02
2023-01-13T07:07:46.565Z,20.45
2023-01-13T07:12:59.645Z,23.52
2023-01-13T07:17:53.575Z,25.13
2023-01-13T07:22:47.279Z,26.15
2023-01-13T07:27:41.271Z,30.63
2023-01-13T07:32:34.635Z,26.33
2023-01-13T07:37:28.905Z,21.80
2023-01-13T07:42:40.329Z,37.22
2023-01-13T07:47:34.460Z,23.33
2023-01-13T07:52:28.228Z,27.73
2023-01-13T07:57:21.797Z,24.33
2023-01-13T08:02:15.429Z,24.05
2023-01-13T08:07:09.411Z,27.55
2023-01-13T08:12:20.734Z,28.15
2023-01-13T08:17:14.856Z,23.13
2023-01-13T08:22:08.683Z,27.38
2023-01-13T08:27:02.712Z,25.45
2023-01-13T08:31:56.082Z,29.15
2023-01-13T08:36:51.149Z,26.95
2023-01-13T08:41:57.609Z,22.55
2023-01-13T08:46:51.472Z,21.92
2023-01-13T08:51:45.012Z,24.80
2023-01-13T08:56:39.762Z,25.52
2023-01-13T09:01:33.178Z,27.33
2023-01-13T09:06:27.054Z,48.75
2023-01-13T09:11:39.755Z,27.05
2023-01-13T09:16:33.678Z,27.75
2023-01-13T09:21:28.398Z,29.98
2023-01-13T09:26:22.639Z,25.50
2023-01-13T09:31:16.687Z,25.90
2023-01-13T09:36:10.887Z,24.48
2023-01-13T09:41:24.545Z,31.38
2023-01-13T09:46:41.409Z,36.90
2023-01-13T09:51:40.299Z,40.33
2023-01-13T09:56:33.963Z,33.83
2023-01-13T10:02:07.886Z,34.10
2023-01-13T10:07:04.269Z,42.25
2023-01-13T10:12:18.363Z,36.60
2023-01-13T10:18:02.060Z,40.75
2023-01-13T10:23:38.049Z,51.05
2023-01-13T10:28:31.661Z,111.95
2023-01-13T10:33:28.900Z,75.03
2023-01-13T10:38:26.894Z,68.07
2023-01-13T10:43:20.881Z,61.00
2023-01-13T10:48:15.508Z,49.30
2023-01-13T10:53:25.092Z,35.83
2023-01-13T11:03:23.622Z,39.80
2023-01-13T11:08:21.492Z,33.03
2023-01-13T11:13:31.174Z,38.13
2023-01-13T11:18:27.239Z,72.25
2023-01-13T11:23:40.423Z,41.22
2023-01-13T11:28:46.791Z,36.03
2023-01-13T11:33:59.604Z,56.70
2023-01-13T11:38:59.640Z,47.10
2023-01-13T11:44:18.287Z,59.78
2023-01-13T11:49:22.541Z,56.20
2023-01-13T11:54:18.730Z,47.33
2023-01-13T12:00:18.670Z,37.47
2023-01-13T12:05:30.128Z,34.00
2023-01-13T12:10:43.730Z,47.35
2023-01-13T12:15:54.638Z,37.83
2023-01-13T12:21:01.673Z,36.33
2023-01-13T12:25:59.720Z,36.28
2023-01-13T12:30:57.720Z,43.97
2023-01-13T12:35:58.965Z,43.25
2023-01-13T12:41:20.933Z,39.42
2023-01-13T12:46:20.405Z,36.50
2023-01-13T12:51:51.692Z,38.05
2023-01-13T12:56:45.783Z,32.65
2023-01-13T13:01:39.531Z,30.58
2023-01-13T13:06:33.704Z,34.60
2023-01-13T13:12:00.683Z,37.25
2023-01-13T13:16:54.870Z,89.32
2023-01-13T13:22:12.984Z,43.20
2023-01-13T13:27:41.121Z,41.47
2023-01-13T13:32:52.388Z,36.10
2023-01-13T13:38:06.601Z,37.40
2023-01-13T13:43:17.910Z,40.33
2023-01-13T13:48:19.983Z,39.03
2023-01-13T13:53:13.938Z,39.33
2023-01-13T13:58:15.740Z,36.00
2023-01-13T14:03:27.360Z,33.05
2023-01-13T14:08:21.380Z,40.10
2023-01-13T14:13:32.748Z,41.63
2023-01-13T14:18:27.213Z,36.53
2023-01-13T14:23:25.742Z,39.55
2023-01-13T14:28:39.435Z,46.70
2023-01-13T14:34:32.253Z,35.65
2023-01-13T14:39:34.121Z,37.60
2023-01-13T14:44:30.791Z,35.03
2023-01-13T14:49:42.137Z,39.90
2023-01-13T14:54:50.324Z,33.85
2023-01-13T14:59:52.493Z,42.97
2023-01-13T15:04:46.439Z,35.00
2023-01-13T15:09:45.806Z,33.30
2023-01-13T15:14:39.793Z,33.78
2023-01-13T15:19:33.928Z,50.58
2023-01-13T15:24:27.598Z,35.30
2023-01-13T15:29:20.930Z,41.72
2023-01-13T15:34:14.447Z,44.55
2023-01-13T15:39:08.253Z,35.60
2023-01-13T15:44:20.746Z,40.97
2023-01-13T15:49:19.852Z,40.55
2023-01-13T15:54:13.442Z,41.75
2023-01-13T15:59:39.896Z,38.67
2023-01-13T16:04:34.020Z,45.00
2023-01-13T16:09:28.425Z,41.90
2023-01-13T16:14:22.061Z,41.97
2023-01-13T16:19:14.822Z,39.47
2023-01-13T16:24:08.717Z,46.80
2023-01-13T16:29:02.147Z,39.33
2023-01-13T16:33:55.086Z,45.55
2023-01-13T16:38:50.347Z,50.58
2023-01-13T16:43:43.999Z,54.28
2023-01-13T16:48:37.434Z,43.45
2023-01-13T16:53:31.854Z,44.85
2023-01-13T16:58:26.025Z,50.58
2023-01-13T17:03:20.272Z,60.38
2023-01-13T17:08:18.652Z,82.50
2023-01-13T17:13:16.267Z,62.47
2023-01-13T17:18:12.397Z,64.25
2023-01-13T17:23:06.579Z,55.03
2023-01-13T17:28:00.939Z,57.70
2023-01-13T17:32:54.678Z,65.63
2023-01-13T17:37:48.930Z,55.70
2023-01-13T17:42:43.387Z,61.65
2023-01-13T17:47:37.480Z,60.00
2023-01-13T17:52:30.310Z,56.00
2023-01-13T17:57:24.442Z,53.97
2023-01-13T18:02:19.673Z,63.92
2023-01-13T18:07:14.106Z,59.85
2023-01-13T18:12:08.216Z,91.72
2023-01-13T18:17:02.231Z,69.65
2023-01-13T18:22:13.658Z,63.58
2023-01-13T18:27:24.889Z,68.95
2023-01-13T18:32:18.951Z,69.60
2023-01-13T18:37:12.352Z,74.55
2023-01-13T18:42:25.916Z,72.78
2023-01-13T18:47:20.266Z,52.25
2023-01-13T18:52:14.655Z,53.65
2023-01-13T18:57:08.471Z,65.00
2023-01-13T19:02:03.139Z,58.08
2023-01-13T19:07:01.360Z,54.65
2023-01-13T19:11:55.195Z,50.03
2023-01-13T19:16:49.219Z,55.50
2023-01-13T19:21:43.200Z,49.17
2023-01-13T19:26:37.411Z,56.50
2023-01-13T19:31:31.218Z,53.60
2023-01-13T19:36:25.510Z,48.95
2023-01-13T19:41:37.567Z,52.45
2023-01-13T19:46:31.772Z,56.00
2023-01-13T19:51:26.359Z,71.32
2023-01-13T19:56:18.617Z,75.85
2023-01-13T20:01:16.873Z,58.63
2023-01-13T20:06:12.231Z,69.13
2023-01-13T20:11:22.348Z,64.53
2023-01-13T20:16:16.086Z,80.60
2023-01-13T20:21:09.833Z,64.15
2023-01-13T20:26:04.072Z,71.45
2023-01-13T20:30:58.443Z,61.47
2023-01-13T20:36:18.391Z,53.75
2023-01-13T20:41:29.446Z,53.33
2023-01-13T20:46:23.469Z,54.28
2023-01-13T20:51:17.519Z,63.33
2023-01-13T20:56:11.068Z,61.65
2023-01-13T21:01:05.739Z,63.33
2023-01-13T21:06:00.205Z,66.10
2023-01-13T21:11:01.229Z,69.30
2023-01-13T21:15:56.583Z,62.78
2023-01-13T21:20:51.654Z,54.83
2023-01-13T21:25:45.984Z,63.20
2023-01-13T21:30:40.146Z,64.50
2023-01-13T21:35:33.845Z,58.15
2023-01-13T21:40:28.597Z,49.22
2023-01-13T21:45:41.110Z,50.15
2023-01-13T21:50:34.891Z,49.80
2023-01-13T21:55:29.452Z,51.88
2023-01-13T22:00:27.629Z,46.03
2023-01-13T22:05:23.295Z,44.40
2023-01-13T22:10:58.394Z,49.35
2023-01-13T22:15:52.670Z,68.40
2023-01-13T22:20:46.668Z,53.13
2023-01-13T22:25:40.947Z,52.47
2023-01-13T22:30:34.632Z,60.40
2023-01-13T22:35:28.827Z,53.72
2023-01-13T22:40:22.428Z,52.25
2023-01-13T22:45:15.938Z,42.38
2023-01-13T22:50:13.039Z,51.22
2023-01-13T22:55:07.392Z,50.97
2023-01-13T23:00:01.385Z,36.15
2023-01-13T23:04:54.448Z,41.30
2023-01-13T23:09:48.646Z,36.78
2023-01-13T23:14:41.948Z,39.83
2023-01-13T23:19:36.485Z,35.05
2023-01-13T23:24:30.382Z,37.65
2023-01-13T23:29:24.842Z,39.88
2023-01-13T23:34:18.572Z,44.03
2023-01-13T23:39:12.172Z,35.30
2023-01-13T23:44:07.393Z,39.25
2023-01-13T23:49:02.929Z,37.83
2023-01-13T23:53:58.285Z,35.88
2023-01-13T23:58:51.721Z,35.65
